createdAt,value
2023-01-13T00:00:16.038Z,76.41
2023-01-13T00:02:42.996Z,76.00
2023-01-13T00:05:10.292Z,76.38
2023-01-13T00:07:40.414Z,76.42
2023-01-13T00:10:10.074Z,76.31
2023-01-13T00:12:41.671Z,76.31
2023-01-13T00:15:09.136Z,76.18
2023-01-13T00:17:35.750Z,75.99
2023-01-13T00:20:02.778Z,75.95
2023-01-13T00:22:29.449Z,75.46
2023-01-13T00:24:58.225Z,75.47
2023-01-13T00:27:25.543Z,75.40
2023-01-13T00:29:52.320Z,75.33
2023-01-13T00:32:19.026Z,75.19
2023-01-13T00:34:45.860Z,75.26
2023-01-13T00:37:14.685Z,75.24
2023-01-13T00:39:41.881Z,74.61
2023-01-13T00:42:27.512Z,74.57
2023-01-13T00:44:54.215Z,74.56
2023-01-13T00:47:20.787Z,74.44
2023-01-13T00:49:47.693Z,74.60
2023-01-13T00:52:14.288Z,74.41
2023-01-13T00:54:41.047Z,74.28
2023-01-13T00:57:08.614Z,74.50
2023-01-13T00:59:35.202Z,74.52
2023-01-13T01:02:02.074Z,74.11
2023-01-13T01:04:28.853Z,74.47
2023-01-13T01:06:55.496Z,73.90
2023-01-13T01:09:22.265Z,74.20
2023-01-13T01:11:48.966Z,73.67
2023-01-13T01:14:15.610Z,73.83
2023-01-13T01:16:42.528Z,74.26
2023-01-13T01:19:10.515Z,73.85
2023-01-13T01:21:37.218Z,73.90
2023-01-13T01:24:05.106Z,73.80
2023-01-13T01:26:32.909Z,73.86
2023-01-13T01:29:02.139Z,73.61
2023-01-13T01:31:32.193Z,73.77
2023-01-13T01:34:00.192Z,73.92
2023-01-13T01:36:29.935Z,74.00
2023-01-13T01:38:58.583Z,73.84
2023-01-13T01:41:28.814Z,73.76
2023-01-13T01:44:40.304Z,73.52
2023-01-13T01:47:07.869Z,73.52
2023-01-13T01:49:36.904Z,74.19
2023-01-13T01:52:21.037Z,74.11
2023-01-13T01:55:22.538Z,74.02
2023-01-13T01:57:58.795Z,73.75
2023-01-13T02:00:28.369Z,73.86
2023-01-13T02:02:56.134Z,74.20
2023-01-13T02:05:23.754Z,73.74
2023-01-13T02:07:54.796Z,73.68
2023-01-13T02:10:24.210Z,74.13
2023-01-13T02:12:52.764Z,73.74
2023-01-13T02:15:46.871Z,73.95
2023-01-13T02:18:46.138Z,73.75
2023-01-13T02:21:38.391Z,74.05
2023-01-13T02:24:53.838Z,73.90
2023-01-13T02:27:41.620Z,73.94
2023-01-13T02:30:35.639Z,73.83
2023-01-13T02:33:27.366Z,73.61
2023-01-13T02:35:59.852Z,73.66
2023-01-13T02:38:54.886Z,73.72
2023-01-13T02:41:49.311Z,73.21
2023-01-13T02:44:24.318Z,73.42
2023-01-13T02:47:04.139Z,73.57
2023-01-13T02:49:43.602Z,73.18
2023-01-13T02:52:20.339Z,72.93
2023-01-13T02:54:53.447Z,73.45
2023-01-13T02:57:22.152Z,72.99
2023-01-13T02:59:49.399Z,73.20
2023-01-13T03:02:21.532Z,73.37
2023-01-13T03:04:57.021Z,73.70
2023-01-13T03:07:57.593Z,73.34
2023-01-13T03:10:38.119Z,73.50
2023-01-13T03:13:20.116Z,73.90
2023-01-13T03:16:01.413Z,74.04
2023-01-13T03:18:50.128Z,73.68
2023-01-13T03:21:32.808Z,73.55
2023-01-13T03:24:13.803Z,74.24
2023-01-13T03:26:58.305Z,74.19
2023-01-13T03:29:31.754Z,74.03
2023-01-13T03:32:34.858Z,74.19
2023-01-13T03:35:11.205Z,74.05
2023-01-13T03:37:42.502Z,74.29
2023-01-13T03:40:17.501Z,74.67
2023-01-13T03:43:08.001Z,74.38
2023-01-13T03:45:38.102Z,74.71
2023-01-13T03:48:10.946Z,74.56
2023-01-13T03:50:43.869Z,75.26
2023-01-13T03:53:16.206Z,74.98
2023-01-13T03:55:51.752Z,74.95
2023-01-13T03:58:25.683Z,75.11
2023-01-13T04:01:00.079Z,75.68
2023-01-13T04:03:36.497Z,75.32
2023-01-13T04:06:22.537Z,75.36
2023-01-13T04:08:55.632Z,75.95
2023-01-13T04:11:33.612Z,75.80
2023-01-13T04:14:03.425Z,75.86
2023-01-13T04:16:30.189Z,75.88
2023-01-13T04:18:56.937Z,75.76
2023-01-13T04:21:23.685Z,75.90
2023-01-13T04:23:51.576Z,75.62
2023-01-13T04:26:19.920Z,76.27
2023-01-13T04:28:46.962Z,76.14
2023-01-13T04:31:13.719Z,76.16
2023-01-13T04:33:40.748Z,76.04
2023-01-13T04:36:07.739Z,75.75
2023-01-13T04:38:34.424Z,76.16
2023-01-13T04:41:01.534Z,76.10
2023-01-13T04:43:28.371Z,76.23
2023-01-13T04:45:55.199Z,76.04
2023-01-13T04:48:21.925Z,76.10
2023-01-13T04:50:48.668Z,75.97
2023-01-13T04:53:15.381Z,75.98
2023-01-13T04:55:42.318Z,76.31
2023-01-13T04:58:10.535Z,75.90
2023-01-13T05:00:37.555Z,76.07
2023-01-13T05:03:05.114Z,76.20
2023-01-13T05:05:32.329Z,75.96
2023-01-13T05:07:59.036Z,76.21
2023-01-13T05:10:26.675Z,76.00
2023-01-13T05:13:11.855Z,76.20
2023-01-13T05:15:59.005Z,75.73
2023-01-13T05:18:26.777Z,75.72
2023-01-13T05:20:53.442Z,75.94
2023-01-13T05:23:38.619Z,75.60
2023-01-13T05:26:06.003Z,75.87
2023-01-13T05:28:34.012Z,75.67
2023-01-13T05:31:01.534Z,75.89
2023-01-13T05:33:28.329Z,76.01
2023-01-13T05:35:55.065Z,75.68
2023-01-13T05:38:21.864Z,75.63
2023-01-13T05:41:07.393Z,75.56
2023-01-13T05:43:35.046Z,75.43
2023-01-13T05:46:05.302Z,75.37
2023-01-13T05:48:34.942Z,75.11
2023-01-13T05:51:03.586Z,75.08
2023-01-13T05:53:30.786Z,75.57
2023-01-13T05:55:57.982Z,74.74
2023-01-13T05:58:26.800Z,75.28
2023-01-13T06:00:54.000Z,74.89
2023-01-13T06:03:20.658Z,74.73
2023-01-13T06:05:48.788Z,74.72
2023-01-13T06:08:15.573Z,74.54
2023-01-13T06:10:42.217Z,74.37
2023-01-13T06:13:09.208Z,74.28
2023-01-13T06:15:36.105Z,74.67
2023-01-13T06:18:04.747Z,74.55
2023-01-13T06:20:32.344Z,74.45
2023-01-13T06:22:59.605Z,74.13
2023-01-13T06:25:29.118Z,74.42
2023-01-13T06:27:59.233Z,73.94
2023-01-13T06:30:29.885Z,74.47
2023-01-13T06:33:01.895Z,73.78
2023-01-13T06:35:33.315Z,74.31
2023-01-13T06:38:03.899Z,74.19
2023-01-13T06:40:30.598Z,74.12
2023-01-13T06:43:17.341Z,74.39
2023-01-13T06:45:47.315Z,74.42
2023-01-13T06:48:14.476Z,74.49
2023-01-13T06:50:42.423Z,74.00
2023-01-13T06:53:09.885Z,74.60
2023-01-13T06:55:36.990Z,74.40
2023-01-13T06:58:03.767Z,74.28
2023-01-13T07:00:32.369Z,74.41
2023-01-13T07:03:16.532Z,74.82
2023-01-13T07:05:50.779Z,74.79
2023-01-13T07:08:17.664Z,74.65
2023-01-13T07:10:44.559Z,75.18
2023-01-13T07:13:29.986Z,75.06
2023-01-13T07:16:02.258Z,75.39
2023-01-13T07:18:32.037Z,75.40
2023-01-13T07:21:09.581Z,76.23
2023-01-13T07:23:39.711Z,75.92
2023-01-13T07:26:08.289Z,76.56
2023-01-13T07:28:35.033Z,76.87
2023-01-13T07:31:02.278Z,76.93
2023-01-13T07:33:32.960Z,77.05
2023-01-13T07:36:02.599Z,77.22
2023-01-13T07:38:30.930Z,77.53
2023-01-13T07:40:57.783Z,77.16
2023-01-13T07:43:33.446Z,77.23
2023-01-13T07:46:03.252Z,77.53
2023-01-13T07:48:32.001Z,77.24
2023-01-13T07:51:07.635Z,77.97
2023-01-13T07:53:35.131Z,77.66
2023-01-13T07:56:03.679Z,77.60
2023-01-13T07:58:30.751Z,78.02
2023-01-13T08:00:58.192Z,78.20
2023-01-13T08:03:25.343Z,78.11
2023-01-13T08:05:52.707Z,78.00
2023-01-13T08:08:19.729Z,78.11
2023-01-13T08:10:47.617Z,78.45
2023-01-13T08:13:22.197Z,78.35
2023-01-13T08:15:52.049Z,78.55
2023-01-13T08:18:22.148Z,77.96
2023-01-13T08:20:53.052Z,78.19
2023-01-13T08:23:21.283Z,78.08
2023-01-13T08:25:48.612Z,77.98
2023-01-13T08:28:16.297Z,77.73
2023-01-13T08:30:43.731Z,78.18
2023-01-13T08:33:12.015Z,77.90
2023-01-13T08:35:40.628Z,77.57
2023-01-13T08:38:08.218Z,77.65
2023-01-13T08:40:35.665Z,77.55
2023-01-13T08:43:03.221Z,77.21
2023-01-13T08:45:30.260Z,77.39
2023-01-13T08:47:57.480Z,77.28
2023-01-13T08:50:24.581Z,77.35
2023-01-13T08:52:51.318Z,77.26
2023-01-13T08:55:18.120Z,76.92
2023-01-13T08:57:45.126Z,77.35
2023-01-13T09:00:13.040Z,77.08
2023-01-13T09:02:39.845Z,77.22
2023-01-13T09:05:08.584Z,77.34
2023-01-13T09:07:37.303Z,77.08
2023-01-13T09:10:05.865Z,77.12
2023-01-13T09:12:51.153Z,76.99
2023-01-13T09:15:18.662Z,76.95
2023-01-13T09:17:45.976Z,77.54
2023-01-13T09:20:13.708Z,77.18
2023-01-13T09:22:41.542Z,77.01
2023-01-13T09:25:09.075Z,77.58
2023-01-13T09:27:36.621Z,77.54
2023-01-13T09:30:03.955Z,77.65
2023-01-13T09:32:30.783Z,77.81
2023-01-13T09:35:00.463Z,77.87
2023-01-13T09:37:38.522Z,78.01
2023-01-13T09:40:18.365Z,78.35
2023-01-13T09:43:35.600Z,79.43
2023-01-13T09:46:31.573Z,78.85
2023-01-13T09:48:59.863Z,78.94
2023-01-13T09:51:31.776Z,79.10
2023-01-13T09:54:27.982Z,79.41
2023-01-13T09:56:54.728Z,79.40
2023-01-13T09:59:21.660Z,79.35
2023-01-13T10:02:00.366Z,79.80
2023-01-13T10:04:28.050Z,79.63
2023-01-13T10:07:03.856Z,79.66
2023-01-13T10:09:36.707Z,79.87
2023-01-13T10:12:24.556Z,80.00
2023-01-13T10:14:57.364Z,79.91
2023-01-13T10:18:02.294Z,79.77
2023-01-13T10:20:34.433Z,79.78
2023-01-13T10:23:14.544Z,79.75
2023-01-13T10:25:47.447Z,79.98
2023-01-13T10:28:19.448Z,80.06
2023-01-13T10:30:47.771Z,80.40
2023-01-13T10:33:21.403Z,80.02
2023-01-13T10:35:59.535Z,80.43
2023-01-13T10:38:35.559Z,80.58
2023-01-13T10:41:06.386Z,80.42
2023-01-13T10:43:33.088Z,80.52
2023-01-13T10:46:06.008Z,80.75
2023-01-13T10:49:00.114Z,80.61
2023-01-13T10:51:43.245Z,80.63
2023-01-13T10:54:13.246Z,80.58
2023-01-13T10:56:42.277Z,80.40
2023-01-13T10:59:29.961Z,80.77
2023-01-13T11:02:16.247Z,80.71
2023-01-13T11:04:54.526Z,80.42
2023-01-13T11:07:35.810Z,80.98
2023-01-13T11:10:22.999Z,81.06
2023-01-13T11:13:08.723Z,80.70
2023-01-13T11:15:54.139Z,80.25
2023-01-13T11:18:34.573Z,80.67
2023-01-13T11:21:06.954Z,79.85
2023-01-13T11:23:50.197Z,80.34
2023-01-13T11:26:27.357Z,80.04
2023-01-13T11:29:15.061Z,80.27
2023-01-13T11:32:00.739Z,80.33
2023-01-13T11:34:32.589Z,80.09
2023-01-13T11:37:02.246Z,80.33
2023-01-13T11:39:47.772Z,79.65
2023-01-13T11:42:27.039Z,80.09
2023-01-13T11:45:06.057Z,79.55
2023-01-13T11:47:35.198Z,79.94
2023-01-13T11:50:02.582Z,79.39
2023-01-13T11:53:07.777Z,79.62
2023-01-13T11:56:06.739Z,79.58
2023-01-13T11:58:51.464Z,79.20
2023-01-13T12:01:43.798Z,78.97
2023-01-13T12:04:23.745Z,79.04
2023-01-13T12:07:22.149Z,79.37
2023-01-13T12:10:03.663Z,78.96
2023-01-13T12:12:51.639Z,79.01
2023-01-13T12:15:21.602Z,78.77
2023-01-13T12:18:25.421Z,78.80
2023-01-13T12:21:01.624Z,79.25
2023-01-13T12:23:35.754Z,79.20
2023-01-13T12:26:10.654Z,78.67
2023-01-13T12:28:54.948Z,78.16
2023-01-13T12:31:23.529Z,78.64
2023-01-13T12:33:59.083Z,77.90
2023-01-13T12:36:40.331Z,77.99
2023-01-13T12:39:24.095Z,77.61
2023-01-13T12:42:36.205Z,77.27
2023-01-13T12:45:12.506Z,77.38
2023-01-13T12:47:45.715Z,77.35
2023-01-13T12:50:27.401Z,77.38
2023-01-13T12:52:56.586Z,77.53
2023-01-13T12:55:33.406Z,77.34
2023-01-13T12:58:15.144Z,77.23
2023-01-13T13:00:41.857Z,76.94
2023-01-13T13:03:11.150Z,77.38
2023-01-13T13:05:59.053Z,76.61
2023-01-13T13:08:32.400Z,76.73
2023-01-13T13:11:35.061Z,76.67
2023-01-13T13:14:13.626Z,76.68
2023-01-13T13:16:49.564Z,76.55
2023-01-13T13:19:20.175Z,76.57
2023-01-13T13:22:05.494Z,76.59
2023-01-13T13:24:33.827Z,76.66
2023-01-13T13:27:22.567Z,76.84
2023-01-13T13:30:13.391Z,76.56
2023-01-13T13:32:52.055Z,76.61
2023-01-13T13:35:29.105Z,76.57
2023-01-13T13:38:20.626Z,75.83
2023-01-13T13:41:06.855Z,76.09
2023-01-13T13:43:58.924Z,75.44
2023-01-13T13:46:49.547Z,75.38
2023-01-13T13:49:21.934Z,75.85
2023-01-13T13:51:49.458Z,75.43
2023-01-13T13:54:20.085Z,75.18
2023-01-13T13:56:48.925Z,74.85
2023-01-13T13:59:20.953Z,74.87
2023-01-13T14:02:00.767Z,74.74
2023-01-13T14:04:32.968Z,75.07
2023-01-13T14:07:05.110Z,74.45
2023-01-13T14:09:44.179Z,74.67
2023-01-13T14:12:20.069Z,74.19
2023-01-13T14:14:48.226Z,74.25
2023-01-13T14:17:27.405Z,73.70
2023-01-13T14:20:00.406Z,74.04
2023-01-13T14:22:27.247Z,74.34
2023-01-13T14:24:58.249Z,74.43
2023-01-13T14:27:27.775Z,74.45
2023-01-13T14:29:58.146Z,74.34
2023-01-13T14:32:35.216Z,74.18
2023-01-13T14:35:02.083Z,74.06
2023-01-13T14:37:28.660Z,74.19
2023-01-13T14:39:55.831Z,73.33
2023-01-13T14:42:22.754Z,74.01
2023-01-13T14:44:52.564Z,74.03
2023-01-13T14:47:20.022Z,74.13
2023-01-13T14:50:02.264Z,73.81
2023-01-13T14:52:48.550Z,74.05
2023-01-13T14:55:21.278Z,73.86
2023-01-13T14:57:49.763Z,73.91
2023-01-13T15:00:16.830Z,73.76
2023-01-13T15:02:59.132Z,73.15
2023-01-13T15:05:25.940Z,73.64
2023-01-13T15:07:55.836Z,73.82
2023-01-13T15:10:27.673Z,73.24
2023-01-13T15:12:56.484Z,73.63
2023-01-13T15:15:39.475Z,73.79
2023-01-13T15:18:13.293Z,74.07
2023-01-13T15:20:41.867Z,73.82
2023-01-13T15:23:09.331Z,73.86
2023-01-13T15:25:39.360Z,74.23
2023-01-13T15:28:07.711Z,74.77
2023-01-13T15:30:34.568Z,74.81
2023-01-13T15:33:01.464Z,74.67
2023-01-13T15:35:29.172Z,75.21
2023-01-13T15:37:57.253Z,75.40
2023-01-13T15:40:32.579Z,76.37
2023-01-13T15:43:18.166Z,75.87
2023-01-13T15:46:04.795Z,75.41
2023-01-13T15:48:33.001Z,75.77
2023-01-13T15:51:00.903Z,75.96
2023-01-13T15:53:29.011Z,75.80
2023-01-13T15:55:57.975Z,75.82
2023-01-13T15:58:29.608Z,75.78
2023-01-13T16:00:56.672Z,75.71
2023-01-13T16:03:23.537Z,75.83
2023-01-13T16:05:50.275Z,75.40
2023-01-13T16:08:22.853Z,75.12
2023-01-13T16:10:50.740Z,75.31
2023-01-13T16:13:18.213Z,75.30
2023-01-13T16:15:48.564Z,75.55
2023-01-13T16:18:23.838Z,75.55
2023-01-13T16:20:53.970Z,75.11
2023-01-13T16:23:22.597Z,75.57
2023-01-13T16:25:50.294Z,75.40
2023-01-13T16:28:26.793Z,75.69
2023-01-13T16:30:54.050Z,75.29
2023-01-13T16:33:20.862Z,75.91
2023-01-13T16:36:10.428Z,75.27
2023-01-13T16:38:34.609Z,75.75
2023-01-13T16:41:01.759Z,75.70
2023-01-13T16:43:28.399Z,75.65
2023-01-13T16:45:55.168Z,75.52
2023-01-13T16:48:22.907Z,76.00
2023-01-13T16:50:49.630Z,75.78
2023-01-13T16:53:16.575Z,75.76
2023-01-13T16:55:43.787Z,76.09
2023-01-13T16:58:18.816Z,75.87
2023-01-13T17:00:49.089Z,75.74
2023-01-13T17:03:16.652Z,75.81
2023-01-13T17:05:46.807Z,76.05
2023-01-13T17:08:17.428Z,75.85
2023-01-13T17:10:44.827Z,75.93
2023-01-13T17:13:16.409Z,75.87
2023-01-13T17:15:44.642Z,76.06
2023-01-13T17:18:13.431Z,76.50
2023-01-13T17:20:40.851Z,76.08
2023-01-13T17:23:07.985Z,76.29
2023-01-13T17:25:34.645Z,76.06
2023-01-13T17:28:01.390Z,76.40
2023-01-13T17:30:28.263Z,76.27
2023-01-13T17:32:54.961Z,76.05
2023-01-13T17:35:24.853Z,76.54
2023-01-13T17:37:53.180Z,75.96
2023-01-13T17:40:20.507Z,76.27
2023-01-13T17:42:47.224Z,75.96
2023-01-13T17:45:14.492Z,75.78
2023-01-13T17:47:41.148Z,75.86
2023-01-13T17:50:08.460Z,75.93
2023-01-13T17:52:35.457Z,75.79
2023-01-13T17:55:03.136Z,75.77
2023-01-13T17:57:29.818Z,76.04
2023-01-13T17:59:58.754Z,75.61
2023-01-13T18:02:26.413Z,75.64
2023-01-13T18:04:53.195Z,75.92
2023-01-13T18:07:20.380Z,75.59
2023-01-13T18:09:47.143Z,75.89
2023-01-13T18:12:14.618Z,75.67
2023-01-13T18:14:41.735Z,75.45
2023-01-13T18:17:08.559Z,75.58
2023-01-13T18:19:53.816Z,75.42
2023-01-13T18:22:39.238Z,74.92
2023-01-13T18:25:25.318Z,74.83
2023-01-13T18:27:52.163Z,74.73
2023-01-13T18:30:19.088Z,74.57
2023-01-13T18:32:45.904Z,75.09
2023-01-13T18:35:12.664Z,74.76
2023-01-13T18:37:42.217Z,74.84
2023-01-13T18:40:11.755Z,74.66
2023-01-13T18:42:59.124Z,75.12
2023-01-13T18:45:31.037Z,74.94
2023-01-13T18:48:00.208Z,75.03
2023-01-13T18:50:28.250Z,74.52
2023-01-13T18:52:55.675Z,74.75
2023-01-13T18:55:22.862Z,74.53
2023-01-13T18:57:50.436Z,74.44
2023-01-13T19:00:20.130Z,74.39
2023-01-13T19:02:47.439Z,74.62
2023-01-13T19:05:14.678Z,74.36
2023-01-13T19:07:43.513Z,74.51
2023-01-13T19:10:13.055Z,74.79
2023-01-13T19:12:39.875Z,74.67
2023-01-13T19:15:07.379Z,74.39
2023-01-13T19:17:35.193Z,74.11
2023-01-13T19:20:04.056Z,74.30
2023-01-13T19:22:33.767Z,73.97
2023-01-13T19:25:01.842Z,74.33
2023-01-13T19:27:28.854Z,74.17
2023-01-13T19:30:01.486Z,74.24
2023-01-13T19:32:30.942Z,74.39
2023-01-13T19:34:59.541Z,74.33
2023-01-13T19:37:30.956Z,74.06
2023-01-13T19:39:59.138Z,74.29
2023-01-13T19:42:44.957Z,74.16
2023-01-13T19:45:27.840Z,74.19
2023-01-13T19:47:56.356Z,74.50
2023-01-13T19:50:24.251Z,74.58
2023-01-13T19:52:51.247Z,74.56
2023-01-13T19:55:19.959Z,74.39
2023-01-13T19:57:47.120Z,74.66
2023-01-13T20:00:18.351Z,74.33
2023-01-13T20:02:49.451Z,74.56
2023-01-13T20:05:21.818Z,74.38
2023-01-13T20:07:50.148Z,74.75
2023-01-13T20:10:19.091Z,74.40
2023-01-13T20:12:45.883Z,74.62
2023-01-13T20:15:12.694Z,75.46
2023-01-13T20:17:41.472Z,74.77
2023-01-13T20:20:10.003Z,74.43
2023-01-13T20:22:38.402Z,74.61
2023-01-13T20:25:05.628Z,74.77
2023-01-13T20:27:32.480Z,74.74
2023-01-13T20:29:59.337Z,75.02
2023-01-13T20:32:26.153Z,74.95
2023-01-13T20:34:52.856Z,75.68
2023-01-13T20:37:19.509Z,75.76
2023-01-13T20:39:47.007Z,75.91
2023-01-13T20:42:29.205Z,75.96
2023-01-13T20:45:00.844Z,75.90
2023-01-13T20:47:29.513Z,76.05
2023-01-13T20:49:56.685Z,76.31
2023-01-13T20:52:23.585Z,76.18
2023-01-13T20:54:50.345Z,76.69
2023-01-13T20:57:17.359Z,76.99
2023-01-13T20:59:44.332Z,77.16
2023-01-13T21:02:13.625Z,77.43
2023-01-13T21:04:41.262Z,77.66
2023-01-13T21:07:08.670Z,77.40
2023-01-13T21:09:35.892Z,77.54
2023-01-13T21:12:21.473Z,78.05
2023-01-13T21:15:06.786Z,77.99
2023-01-13T21:17:52.364Z,77.79
2023-01-13T21:20:19.311Z,77.79
2023-01-13T21:22:47.844Z,77.92
2023-01-13T21:25:16.657Z,78.29
2023-01-13T21:27:44.128Z,77.89
2023-01-13T21:30:15.527Z,77.94
2023-01-13T21:32:44.459Z,78.00
2023-01-13T21:35:12.978Z,78.41
2023-01-13T21:37:41.430Z,78.38
2023-01-13T21:40:10.327Z,77.95
2023-01-13T21:42:55.680Z,78.41
2023-01-13T21:45:41.305Z,78.31
2023-01-13T21:48:08.072Z,78.13
2023-01-13T21:50:36.403Z,78.71
2023-01-13T21:53:03.595Z,78.33
2023-01-13T21:55:31.329Z,78.82
2023-01-13T21:58:14.447Z,78.88
2023-01-13T22:00:43.611Z,78.84
2023-01-13T22:03:11.772Z,78.72
2023-01-13T22:05:38.977Z,78.58
2023-01-13T22:08:06.097Z,79.37
2023-01-13T22:10:32.975Z,79.10
2023-01-13T22:13:22.650Z,79.54
2023-01-13T22:15:49.679Z,79.40
2023-01-13T22:18:18.336Z,79.13
2023-01-13T22:20:45.726Z,79.22
2023-01-13T22:23:12.693Z,78.98
2023-01-13T22:25:39.410Z,79.36
2023-01-13T22:28:09.192Z,79.39
2023-01-13T22:30:36.029Z,79.03
2023-01-13T22:33:02.986Z,78.91
2023-01-13T22:35:30.012Z,78.84
2023-01-13T22:37:56.908Z,79.15
2023-01-13T22:40:23.642Z,79.29
2023-01-13T22:42:50.390Z,79.50
2023-01-13T22:45:17.232Z,79.53
2023-01-13T22:47:44.011Z,79.19
2023-01-13T22:50:12.677Z,79.18
2023-01-13T22:52:39.546Z,79.35
2023-01-13T22:55:06.989Z,79.60
2023-01-13T22:57:47.263Z,79.90
2023-01-13T23:00:23.091Z,79.50
2023-01-13T23:02:49.744Z,80.05
2023-01-13T23:05:16.509Z,79.92
2023-01-13T23:07:43.098Z,80.03
2023-01-13T23:10:10.502Z,79.79
2023-01-13T23:12:37.247Z,79.71
2023-01-13T23:15:04.445Z,79.68
2023-01-13T23:17:31.591Z,79.90
2023-01-13T23:19:58.540Z,80.03
2023-01-13T23:22:25.225Z,80.05
2023-01-13T23:24:52.113Z,80.15
2023-01-13T23:27:18.901Z,80.15
2023-01-13T23:29:45.591Z,80.29
2023-01-13T23:32:12.353Z,79.85
2023-01-13T23:34:39.049Z,79.97
2023-01-13T23:37:05.770Z,80.27
2023-01-13T23:39:32.512Z,79.94
2023-01-13T23:41:59.595Z,80.44
2023-01-13T23:44:26.335Z,80.65
2023-01-13T23:46:53.194Z,80.53
2023-01-13T23:49:20.556Z,80.30
2023-01-13T23:51:50.905Z,80.30
2023-01-13T23:54:18.331Z,80.71
2023-01-13T23:56:45.264Z,80.24
2023-01-13T23:59:11.986Z,80.98
